Taisho Maru — JI3307 — position and weather

sailwx.info

Track history (hours):
 
Tides and Currents Weather Stations Pressure Air Temp Water Temp Dewpoint Dewpoint Depression Visibility Wind Speed Wind Dir Waves Ship Positions

Taisho Maru

Last reported at 2014-Oct-31 05:31 UTC. Time now 2014-Oct-31 15:49 UTC.
Position N 35°15' E 139°46'.

Length 93 m; draft 4.8 m.

Type: Cargo ship. MMSI: 431300084.

Date/timePositionNaut miles runAvg speedWind from/ knotsBaromVisibWave heightAir tempDewpointWater temp
2014-Oct-31 05:31N 35°15' E 139°46'1212.4
2014-Oct-31 04:33N 35°27' E 139°42'3 2.5
2014-Oct-31 03:33N 35°29' E 139°40'0 0.0
2014-Oct-31 02:32N 35°29' E 139°40'0 0.0
2014-Oct-31 01:32N 35°29' E 139°40'0 0.0
2014-Oct-31 00:32N 35°29' E 139°40'0 0.0
2014-Oct-30 23:32N 35°29' E 139°40'0 0.0
2014-Oct-30 22:32N 35°29' E 139°40'0 0.0
2014-Oct-30 21:32N 35°29' E 139°40'0 0.0
2014-Oct-30 20:32N 35°29' E 139°40'0 0.0
2014-Oct-30 19:32N 35°29' E 139°40'0 0.0
2014-Oct-30 18:32N 35°29' E 139°40'0 0.0
2014-Oct-30 17:32N 35°29' E 139°40'0 0.0
2014-Oct-30 16:32N 35°29' E 139°40'0 0.0
2014-Oct-30 15:29N 35°29' E 139°40'0 0.0
2014-Oct-30 14:32N 35°29' E 139°40'0 0.0
2014-Oct-30 13:32N 35°29' E 139°40'0 0.0
2014-Oct-30 12:32N 35°29' E 139°40'0 0.0
2014-Oct-30 11:32N 35°29' E 139°40'0 0.0
2014-Oct-30 10:32N 35°29' E 139°40'0 0.0
2014-Oct-30 09:32N 35°29' E 139°40'0 0.0
2014-Oct-30 08:33N 35°29' E 139°40'0 0.0
2014-Oct-30 07:33N 35°29' E 139°40'6 5.7
2014-Oct-30 06:34N 35°28' E 139°47'16 2.2
2014-Oct-29 23:19N 35°40' E 139°59'8 1.6
2014-Oct-29 18:29N 35°32' E 139°56'1112.1
2014-Oct-29 17:33N 35°24' E 139°46'1010.2
2014-Oct-29 16:34N 35°14' E 139°47'1211.3
2014-Oct-29 15:28N 35°03' E 139°41'244 5.2
2014-Oct-27 16:33N 34°02' E 134°54'1514.9
2014-Oct-27 15:33N 34°16' E 134°58'1414.3
2014-Oct-27 14:33N 34°28' E 135°08'1211.8
2014-Oct-27 13:33N 34°36' E 135°19'0 0.1
2014-Oct-27 12:33N 34°36' E 135°19'0 0.0
2014-Oct-27 11:33N 34°36' E 135°19'3 2.5
2014-Oct-27 10:33N 34°37' E 135°21'5 5.2
2014-Oct-27 09:33N 34°40' E 135°27'0 0.0
2014-Oct-27 08:33N 34°40' E 135°27'0 0.0
2014-Oct-27 07:33N 34°40' E 135°27'0 0.0
2014-Oct-27 06:33N 34°40' E 135°27'0 0.0
2014-Oct-27 05:33N 34°40' E 135°27'0 0.0
2014-Oct-27 04:34N 34°40' E 135°27'0 0.0
2014-Oct-27 03:33N 34°40' E 135°27'0 0.0
2014-Oct-27 02:33N 34°40' E 135°27'0 0.0
2014-Oct-27 01:33N 34°40' E 135°27'0 0.0
2014-Oct-27 00:33N 34°40' E 135°27'0 0.0
2014-Oct-26 23:29N 34°40' E 135°27'2 1.7
2014-Oct-26 22:33N 34°39' E 135°25'6 5.7
2014-Oct-26 21:30N 34°36' E 135°19'4 4.2
2014-Oct-26 20:33N 34°33' E 135°16'1211.9
2014-Oct-26 19:32N 34°24' E 135°06'1010.2
2014-Oct-26 18:33N 34°16' E 135°00'7 6.6
2014-Oct-26 17:33N 34°14' E 135°08'0 0.0
2014-Oct-26 16:31N 34°14' E 135°08'0 0.0
2014-Oct-26 15:28N 34°14' E 135°08'0 0.0
2014-Oct-26 14:31N 34°14' E 135°08'0 0.0
2014-Oct-26 13:31N 34°14' E 135°08'4 3.8
2014-Oct-26 12:33N 34°15' E 135°04'10 9.5
2014-Oct-26 11:32N 34°24' E 135°00'1211.6
2014-Oct-26 10:33N 34°36' E 135°03'1211.8
2014-Oct-26 09:33N 34°38' E 134°49'1 0.0
2014-Oct-25 06:17N 34°38' E 134°51'911.7
2014-Oct-25 05:32N 34°37' E 135°01'1212.5
2014-Oct-25 04:33N 34°37' E 135°16'9 9.4
2014-Oct-25 03:33N 34°40' E 135°27'0 0.0
2014-Oct-25 02:31N 34°40' E 135°27'0 0.0
2014-Oct-24 23:07N 34°40' E 135°27'1 1.1
2014-Oct-24 22:33N 34°40' E 135°26'7 6.6
2014-Oct-24 21:33N 34°36' E 135°19'0 0.3
2014-Oct-24 20:29N 34°36' E 135°19'0 0.0
2014-Oct-24 19:23N 34°36' E 135°19'0 0.0
2014-Oct-24 18:29N 34°36' E 135°19'0 0.1
2014-Oct-24 17:29N 34°36' E 135°19'0 0.0
2014-Oct-24 16:23N 34°36' E 135°19'0 0.0
2014-Oct-24 15:29N 34°36' E 135°19'0 0.0
2014-Oct-24 14:29N 34°36' E 135°19'0 0.0
2014-Oct-24 13:23N 34°36' E 135°19'0 0.0
2014-Oct-24 12:29N 34°36' E 135°19'0 0.0
2014-Oct-24 11:29N 34°36' E 135°19'0 0.0
2014-Oct-24 10:29N 34°36' E 135°19'0 0.0
2014-Oct-24 09:17N 34°36' E 135°19'0 0.3
2014-Oct-24 08:33N 34°36' E 135°19'1111.4
2014-Oct-24 07:33N 34°27' E 135°10'1312.2
2014-Oct-24 06:30N 34°18' E 134°59'1111.7
2014-Oct-24 05:33N 34°08' E 135°06'2 0.4
2014-Oct-23 23:32N 34°07' E 135°08'5 4.9
2014-Oct-23 22:33N 34°05' E 135°03'9 0.3
2014-Oct-22 17:32N 33°59' E 134°54'1515.2
2014-Oct-22 16:33N 34°14' E 134°58'1515.2
2014-Oct-22 15:34N 34°27' E 135°07'1313.2
2014-Oct-22 14:33N 34°36' E 135°18'0 0.2
2014-Oct-22 13:28N 34°36' E 135°19'0 0.0
2014-Oct-22 12:28N 34°36' E 135°19'0 0.0
2014-Oct-22 11:16N 34°36' E 135°19'0 0.0
2014-Oct-22 10:28N 34°36' E 135°19'4 4.1
2014-Oct-22 09:33N 34°38' E 135°23'4 4.1
2014-Oct-22 08:33N 34°40' E 135°27'0 0.0
2014-Oct-22 07:33N 34°40' E 135°27'0 0.0
2014-Oct-22 06:26N 34°40' E 135°27'0 0.0
2014-Oct-22 01:26N 34°40' E 135°27'0 0.0
2014-Oct-22 00:26N 34°40' E 135°27'0 0.0
2014-Oct-21 23:32N 34°40' E 135°27'1 1.2
2014-Oct-21 22:33N 34°39' E 135°26'7 6.2
2014-Oct-21 21:29N 34°36' E 135°19'0 0.0
2014-Oct-21 20:23N 34°36' E 135°19'0 0.1
2014-Oct-21 19:29N 34°36' E 135°19'0 0.0
2014-Oct-21 18:29N 34°36' E 135°19'0 0.0
2014-Oct-21 17:29N 34°36' E 135°19'0 0.1
2014-Oct-21 16:29N 34°36' E 135°19'0 0.1
2014-Oct-21 15:34N 34°36' E 135°19'9 8.7
2014-Oct-21 14:33N 34°35' E 135°08'1313.0
2014-Oct-21 13:33N 34°37' E 134°53'  
Track history (hours):
 
Tides and Currents Weather Stations Pressure Air Temp Water Temp Dewpoint Dewpoint Depression Visibility Wind Speed Wind Dir Waves Ship Positions

Taisho Maru

Last reported at 2014-Oct-31 05:31 UTC. Time now 2014-Oct-31 15:49 UTC.
Position N 35°15' E 139°46'.

Length 93 m; draft 4.8 m.

Type: Cargo ship. MMSI: 431300084.

Date/timePositionNaut miles runAvg speedWind from/ knotsBaromVisibWave heightAir tempDewpointWater temp
2014-Oct-31 05:31N 35°15' E 139°46'1212.4
2014-Oct-31 04:33N 35°27' E 139°42'3 2.5
2014-Oct-31 03:33N 35°29' E 139°40'0 0.0
2014-Oct-31 02:32N 35°29' E 139°40'0 0.0
2014-Oct-31 01:32N 35°29' E 139°40'0 0.0
2014-Oct-31 00:32N 35°29' E 139°40'0 0.0
2014-Oct-30 23:32N 35°29' E 139°40'0 0.0
2014-Oct-30 22:32N 35°29' E 139°40'0 0.0
2014-Oct-30 21:32N 35°29' E 139°40'0 0.0
2014-Oct-30 20:32N 35°29' E 139°40'0 0.0
2014-Oct-30 19:32N 35°29' E 139°40'0 0.0
2014-Oct-30 18:32N 35°29' E 139°40'0 0.0
2014-Oct-30 17:32N 35°29' E 139°40'0 0.0
2014-Oct-30 16:32N 35°29' E 139°40'0 0.0
2014-Oct-30 15:29N 35°29' E 139°40'0 0.0
2014-Oct-30 14:32N 35°29' E 139°40'0 0.0
2014-Oct-30 13:32N 35°29' E 139°40'0 0.0
2014-Oct-30 12:32N 35°29' E 139°40'0 0.0
2014-Oct-30 11:32N 35°29' E 139°40'0 0.0
2014-Oct-30 10:32N 35°29' E 139°40'0 0.0
2014-Oct-30 09:32N 35°29' E 139°40'0 0.0
2014-Oct-30 08:33N 35°29' E 139°40'0 0.0
2014-Oct-30 07:33N 35°29' E 139°40'6 5.7
2014-Oct-30 06:34N 35°28' E 139°47'16 2.2
2014-Oct-29 23:19N 35°40' E 139°59'8 1.6
2014-Oct-29 18:29N 35°32' E 139°56'1112.1
2014-Oct-29 17:33N 35°24' E 139°46'1010.2
2014-Oct-29 16:34N 35°14' E 139°47'1211.3
2014-Oct-29 15:28N 35°03' E 139°41'244 5.2
2014-Oct-27 16:33N 34°02' E 134°54'1514.9
2014-Oct-27 15:33N 34°16' E 134°58'1414.3
2014-Oct-27 14:33N 34°28' E 135°08'1211.8
2014-Oct-27 13:33N 34°36' E 135°19'0 0.1
2014-Oct-27 12:33N 34°36' E 135°19'0 0.0
2014-Oct-27 11:33N 34°36' E 135°19'3 2.5
2014-Oct-27 10:33N 34°37' E 135°21'5 5.2
2014-Oct-27 09:33N 34°40' E 135°27'0 0.0
2014-Oct-27 08:33N 34°40' E 135°27'0 0.0
2014-Oct-27 07:33N 34°40' E 135°27'0 0.0
2014-Oct-27 06:33N 34°40' E 135°27'0 0.0
2014-Oct-27 05:33N 34°40' E 135°27'0 0.0
2014-Oct-27 04:34N 34°40' E 135°27'0 0.0
2014-Oct-27 03:33N 34°40' E 135°27'0 0.0
2014-Oct-27 02:33N 34°40' E 135°27'0 0.0
2014-Oct-27 01:33N 34°40' E 135°27'0 0.0
2014-Oct-27 00:33N 34°40' E 135°27'0 0.0
2014-Oct-26 23:29N 34°40' E 135°27'2 1.7
2014-Oct-26 22:33N 34°39' E 135°25'6 5.7
2014-Oct-26 21:30N 34°36' E 135°19'4 4.2
2014-Oct-26 20:33N 34°33' E 135°16'1211.9
2014-Oct-26 19:32N 34°24' E 135°06'1010.2
2014-Oct-26 18:33N 34°16' E 135°00'7 6.6
2014-Oct-26 17:33N 34°14' E 135°08'0 0.0
2014-Oct-26 16:31N 34°14' E 135°08'0 0.0
2014-Oct-26 15:28N 34°14' E 135°08'0 0.0
2014-Oct-26 14:31N 34°14' E 135°08'0 0.0
2014-Oct-26 13:31N 34°14' E 135°08'4 3.8
2014-Oct-26 12:33N 34°15' E 135°04'10 9.5
2014-Oct-26 11:32N 34°24' E 135°00'1211.6
2014-Oct-26 10:33N 34°36' E 135°03'1211.8
2014-Oct-26 09:33N 34°38' E 134°49'1 0.0
2014-Oct-25 06:17N 34°38' E 134°51'911.7
2014-Oct-25 05:32N 34°37' E 135°01'1212.5
2014-Oct-25 04:33N 34°37' E 135°16'9 9.4
2014-Oct-25 03:33N 34°40' E 135°27'0 0.0
2014-Oct-25 02:31N 34°40' E 135°27'0 0.0
2014-Oct-24 23:07N 34°40' E 135°27'1 1.1
2014-Oct-24 22:33N 34°40' E 135°26'7 6.6
2014-Oct-24 21:33N 34°36' E 135°19'0 0.3
2014-Oct-24 20:29N 34°36' E 135°19'0 0.0
2014-Oct-24 19:23N 34°36' E 135°19'0 0.0
2014-Oct-24 18:29N 34°36' E 135°19'0 0.1
2014-Oct-24 17:29N 34°36' E 135°19'0 0.0
2014-Oct-24 16:23N 34°36' E 135°19'0 0.0
2014-Oct-24 15:29N 34°36' E 135°19'0 0.0
2014-Oct-24 14:29N 34°36' E 135°19'0 0.0
2014-Oct-24 13:23N 34°36' E 135°19'0 0.0
2014-Oct-24 12:29N 34°36' E 135°19'0 0.0
2014-Oct-24 11:29N 34°36' E 135°19'0 0.0
2014-Oct-24 10:29N 34°36' E 135°19'0 0.0
2014-Oct-24 09:17N 34°36' E 135°19'0 0.3
2014-Oct-24 08:33N 34°36' E 135°19'1111.4
2014-Oct-24 07:33N 34°27' E 135°10'1312.2
2014-Oct-24 06:30N 34°18' E 134°59'1111.7
2014-Oct-24 05:33N 34°08' E 135°06'2 0.4
2014-Oct-23 23:32N 34°07' E 135°08'5 4.9
2014-Oct-23 22:33N 34°05' E 135°03'9 0.3
2014-Oct-22 17:32N 33°59' E 134°54'1515.2
2014-Oct-22 16:33N 34°14' E 134°58'1515.2
2014-Oct-22 15:34N 34°27' E 135°07'1313.2
2014-Oct-22 14:33N 34°36' E 135°18'0 0.2
2014-Oct-22 13:28N 34°36' E 135°19'0 0.0
2014-Oct-22 12:28N 34°36' E 135°19'0 0.0
2014-Oct-22 11:16N 34°36' E 135°19'0 0.0
2014-Oct-22 10:28N 34°36' E 135°19'4 4.1
2014-Oct-22 09:33N 34°38' E 135°23'4 4.1
2014-Oct-22 08:33N 34°40' E 135°27'0 0.0
2014-Oct-22 07:33N 34°40' E 135°27'0 0.0
2014-Oct-22 06:26N 34°40' E 135°27'0 0.0
2014-Oct-22 01:26N 34°40' E 135°27'0 0.0
2014-Oct-22 00:26N 34°40' E 135°27'0 0.0
2014-Oct-21 23:32N 34°40' E 135°27'1 1.2
2014-Oct-21 22:33N 34°39' E 135°26'7 6.2
2014-Oct-21 21:29N 34°36' E 135°19'0 0.0
2014-Oct-21 20:23N 34°36' E 135°19'0 0.1
2014-Oct-21 19:29N 34°36' E 135°19'0 0.0
2014-Oct-21 18:29N 34°36' E 135°19'0 0.0
2014-Oct-21 17:29N 34°36' E 135°19'0 0.1
2014-Oct-21 16:29N 34°36' E 135°19'0 0.1
2014-Oct-21 15:34N 34°36' E 135°19'9 8.7
2014-Oct-21 14:33N 34°35' E 135°08'1313.0
2014-Oct-21 13:33N 34°37' E 134°53'  

Dump ship's entire track history